sensor_id;sensor_type;location;lat;lon;timestamp;P1;durP1;ratioP1;P2;durP2;ratioP2
78148;SDS011;67396;42.664;23.382;2023-02-11T00:00:53;19.52;;;8.73;;
78148;SDS011;67396;42.664;23.382;2023-02-11T00:03:18;17.98;;;8.60;;
78148;SDS011;67396;42.664;23.382;2023-02-11T00:05:43;15.68;;;7.70;;
78148;SDS011;67396;42.664;23.382;2023-02-11T00:08:09;18.30;;;8.68;;
78148;SDS011;67396;42.664;23.382;2023-02-11T00:10:34;14.00;;;7.68;;
78148;SDS011;67396;42.664;23.382;2023-02-11T00:13:00;22.17;;;10.30;;
78148;SDS011;67396;42.664;23.382;2023-02-11T00:15:25;24.50;;;9.30;;
78148;SDS011;67396;42.664;23.382;2023-02-11T00:17:51;27.00;;;10.18;;
78148;SDS011;67396;42.664;23.382;2023-02-11T00:20:16;18.60;;;8.48;;
78148;SDS011;67396;42.664;23.382;2023-02-11T00:22:41;20.48;;;9.02;;
78148;SDS011;67396;42.664;23.382;2023-02-11T00:25:07;19.60;;;9.23;;
78148;SDS011;67396;42.664;23.382;2023-02-11T00:27:33;20.70;;;9.25;;
78148;SDS011;67396;42.664;23.382;2023-02-11T00:29:58;14.35;;;6.85;;
78148;SDS011;67396;42.664;23.382;2023-02-11T00:32:26;21.05;;;8.57;;
78148;SDS011;67396;42.664;23.382;2023-02-11T00:34:51;21.52;;;8.70;;
78148;SDS011;67396;42.664;23.382;2023-02-11T00:37:19;17.08;;;8.50;;
78148;SDS011;67396;42.664;23.382;2023-02-11T00:39:44;16.83;;;8.10;;
78148;SDS011;67396;42.664;23.382;2023-02-11T00:42:10;20.17;;;8.90;;
78148;SDS011;67396;42.664;23.382;2023-02-11T00:44:38;20.73;;;10.55;;
78148;SDS011;67396;42.664;23.382;2023-02-11T00:47:04;14.02;;;7.32;;
78148;SDS011;67396;42.664;23.382;2023-02-11T00:49:29;13.70;;;8.57;;
78148;SDS011;67396;42.664;23.382;2023-02-11T00:51:55;17.65;;;8.43;;
78148;SDS011;67396;42.664;23.382;2023-02-11T00:54:20;20.02;;;9.18;;
78148;SDS011;67396;42.664;23.382;2023-02-11T00:56:46;15.07;;;8.68;;
78148;SDS011;67396;42.664;23.382;2023-02-11T00:59:11;17.75;;;8.25;;
78148;SDS011;67396;42.664;23.382;2023-02-11T01:01:37;21.73;;;10.18;;
78148;SDS011;67396;42.664;23.382;2023-02-11T01:04:02;18.95;;;9.18;;
78148;SDS011;67396;42.664;23.382;2023-02-11T01:06:28;20.33;;;8.95;;
78148;SDS011;67396;42.664;23.382;2023-02-11T01:08:53;12.90;;;6.57;;
78148;SDS011;67396;42.664;23.382;2023-02-11T01:11:19;18.67;;;9.05;;
78148;SDS011;67396;42.664;23.382;2023-02-11T01:13:46;15.93;;;8.73;;
78148;SDS011;67396;42.664;23.382;2023-02-11T01:16:13;19.75;;;8.57;;
78148;SDS011;67396;42.664;23.382;2023-02-11T01:18:38;16.30;;;8.63;;
78148;SDS011;67396;42.664;23.382;2023-02-11T01:21:06;23.00;;;9.20;;
78148;SDS011;67396;42.664;23.382;2023-02-11T01:23:31;18.88;;;8.45;;
78148;SDS011;67396;42.664;23.382;2023-02-11T01:25:57;17.50;;;8.48;;
78148;SDS011;67396;42.664;23.382;2023-02-11T01:28:23;16.25;;;8.63;;
78148;SDS011;67396;42.664;23.382;2023-02-11T01:30:50;15.88;;;7.38;;
78148;SDS011;67396;42.664;23.382;2023-02-11T01:33:15;16.65;;;8.98;;
78148;SDS011;67396;42.664;23.382;2023-02-11T01:35:41;14.55;;;7.50;;
78148;SDS011;67396;42.664;23.382;2023-02-11T01:38:07;17.48;;;8.88;;
78148;SDS011;67396;42.664;23.382;2023-02-11T01:40:45;17.80;;;8.50;;
78148;SDS011;67396;42.664;23.382;2023-02-11T01:43:15;20.98;;;9.63;;
78148;SDS011;67396;42.664;23.382;2023-02-11T01:45:49;22.00;;;9.60;;
78148;SDS011;67396;42.664;23.382;2023-02-11T01:48:23;19.63;;;7.22;;
78148;SDS011;67396;42.664;23.382;2023-02-11T01:50:53;18.15;;;8.73;;
78148;SDS011;67396;42.664;23.382;2023-02-11T01:53:25;19.75;;;9.30;;
78148;SDS011;67396;42.664;23.382;2023-02-11T01:56:10;23.33;;;10.18;;
78148;SDS011;67396;42.664;23.382;2023-02-11T01:58:56;24.17;;;11.48;;
78148;SDS011;67396;42.664;23.382;2023-02-11T02:01:28;31.25;;;12.43;;
78148;SDS011;67396;42.664;23.382;2023-02-11T02:03:58;26.17;;;12.32;;
78148;SDS011;67396;42.664;23.382;2023-02-11T02:06:26;23.40;;;12.68;;
78148;SDS011;67396;42.664;23.382;2023-02-11T02:09:01;29.23;;;12.02;;
78148;SDS011;67396;42.664;23.382;2023-02-11T02:11:37;24.13;;;10.95;;
78148;SDS011;67396;42.664;23.382;2023-02-11T02:14:02;23.88;;;12.98;;
78148;SDS011;67396;42.664;23.382;2023-02-11T02:16:32;27.40;;;12.43;;
78148;SDS011;67396;42.664;23.382;2023-02-11T02:34:52;22.40;;;10.48;;
78148;SDS011;67396;42.664;23.382;2023-02-11T02:37:37;25.80;;;10.63;;
78148;SDS011;67396;42.664;23.382;2023-02-11T02:40:11;25.90;;;11.40;;
78148;SDS011;67396;42.664;23.382;2023-02-11T02:42:42;27.15;;;13.55;;
78148;SDS011;67396;42.664;23.382;2023-02-11T02:45:09;25.63;;;10.27;;
78148;SDS011;67396;42.664;23.382;2023-02-11T02:47:36;25.08;;;10.68;;
78148;SDS011;67396;42.664;23.382;2023-02-11T02:50:02;23.70;;;10.90;;
78148;SDS011;67396;42.664;23.382;2023-02-11T03:05:56;23.10;;;10.60;;
78148;SDS011;67396;42.664;23.382;2023-02-11T03:08:41;25.88;;;11.23;;
78148;SDS011;67396;42.664;23.382;2023-02-11T03:11:13;21.60;;;9.25;;
78148;SDS011;67396;42.664;23.382;2023-02-11T03:13:42;22.33;;;11.80;;
78148;SDS011;67396;42.664;23.382;2023-02-11T03:16:12;29.67;;;13.75;;
78148;SDS011;67396;42.664;23.382;2023-02-11T03:18:41;23.63;;;12.50;;
78148;SDS011;67396;42.664;23.382;2023-02-11T03:21:11;25.17;;;10.13;;
78148;SDS011;67396;42.664;23.382;2023-02-11T03:23:41;22.13;;;11.73;;
78148;SDS011;67396;42.664;23.382;2023-02-11T03:29:03;24.15;;;11.52;;
78148;SDS011;67396;42.664;23.382;2023-02-11T03:31:41;21.83;;;10.55;;
78148;SDS011;67396;42.664;23.382;2023-02-11T03:34:13;18.95;;;10.15;;
78148;SDS011;67396;42.664;23.382;2023-02-11T03:39:28;24.60;;;11.80;;
78148;SDS011;67396;42.664;23.382;2023-02-11T03:41:59;22.88;;;11.30;;
78148;SDS011;67396;42.664;23.382;2023-02-11T03:44:28;27.13;;;11.52;;
78148;SDS011;67396;42.664;23.382;2023-02-11T03:46:58;12.80;;;3.63;;
78148;SDS011;67396;42.664;23.382;2023-02-11T03:49:27;9.52;;;4.85;;
78148;SDS011;67396;42.664;23.382;2023-02-11T03:51:54;9.88;;;4.70;;
78148;SDS011;67396;42.664;23.382;2023-02-11T03:54:23;9.02;;;4.70;;
78148;SDS011;67396;42.664;23.382;2023-02-11T03:56:54;11.88;;;7.65;;
78148;SDS011;67396;42.664;23.382;2023-02-11T03:59:21;8.88;;;5.25;;
78148;SDS011;67396;42.664;23.382;2023-02-11T04:01:47;10.98;;;6.85;;
78148;SDS011;67396;42.664;23.382;2023-02-11T04:04:12;6.50;;;5.88;;
78148;SDS011;67396;42.664;23.382;2023-02-11T04:06:38;7.10;;;5.78;;
78148;SDS011;67396;42.664;23.382;2023-02-11T04:09:03;7.85;;;5.35;;
78148;SDS011;67396;42.664;23.382;2023-02-11T04:11:29;7.95;;;6.68;;
78148;SDS011;67396;42.664;23.382;2023-02-11T04:13:55;6.15;;;4.03;;
78148;SDS011;67396;42.664;23.382;2023-02-11T04:16:20;7.82;;;4.38;;
78148;SDS011;67396;42.664;23.382;2023-02-11T04:18:46;3.38;;;3.13;;
78148;SDS011;67396;42.664;23.382;2023-02-11T04:21:11;9.23;;;5.45;;
78148;SDS011;67396;42.664;23.382;2023-02-11T04:23:37;7.70;;;5.43;;
78148;SDS011;67396;42.664;23.382;2023-02-11T04:26:02;4.82;;;2.13;;
78148;SDS011;67396;42.664;23.382;2023-02-11T04:28:28;6.55;;;4.75;;
78148;SDS011;67396;42.664;23.382;2023-02-11T04:30:54;12.35;;;7.00;;
78148;SDS011;67396;42.664;23.382;2023-02-11T04:33:20;10.05;;;6.32;;
78148;SDS011;67396;42.664;23.382;2023-02-11T04:35:46;7.93;;;5.60;;
78148;SDS011;67396;42.664;23.382;2023-02-11T04:38:11;8.13;;;2.92;;
78148;SDS011;67396;42.664;23.382;2023-02-11T04:40:37;9.13;;;5.60;;
78148;SDS011;67396;42.664;23.382;2023-02-11T04:43:06;8.73;;;4.38;;
78148;SDS011;67396;42.664;23.382;2023-02-11T04:45:32;8.48;;;3.88;;
78148;SDS011;67396;42.664;23.382;2023-02-11T04:47:58;12.45;;;5.70;;
78148;SDS011;67396;42.664;23.382;2023-02-11T04:50:23;15.38;;;8.45;;
78148;SDS011;67396;42.664;23.382;2023-02-11T04:52:49;17.27;;;7.25;;
78148;SDS011;67396;42.664;23.382;2023-02-11T04:55:14;15.98;;;7.07;;
78148;SDS011;67396;42.664;23.382;2023-02-11T04:57:41;22.70;;;8.45;;
78148;SDS011;67396;42.664;23.382;2023-02-11T05:00:06;17.35;;;9.35;;
78148;SDS011;67396;42.664;23.382;2023-02-11T05:02:34;25.40;;;9.48;;
78148;SDS011;67396;42.664;23.382;2023-02-11T05:04:59;26.17;;;9.43;;
78148;SDS011;67396;42.664;23.382;2023-02-11T05:07:25;17.45;;;9.43;;
78148;SDS011;67396;42.664;23.382;2023-02-11T05:09:50;22.90;;;9.00;;
78148;SDS011;67396;42.664;23.382;2023-02-11T05:12:16;16.75;;;7.40;;
78148;SDS011;67396;42.664;23.382;2023-02-11T05:14:42;22.50;;;9.93;;
78148;SDS011;67396;42.664;23.382;2023-02-11T05:17:07;12.45;;;6.75;;
78148;SDS011;67396;42.664;23.382;2023-02-11T05:19:33;13.35;;;6.60;;
78148;SDS011;67396;42.664;23.382;2023-02-11T05:21:58;14.35;;;7.88;;
78148;SDS011;67396;42.664;23.382;2023-02-11T05:24:24;15.38;;;6.55;;
78148;SDS011;67396;42.664;23.382;2023-02-11T05:26:49;13.02;;;6.75;;
78148;SDS011;67396;42.664;23.382;2023-02-11T05:29:15;15.77;;;8.45;;
78148;SDS011;67396;42.664;23.382;2023-02-11T05:31:40;14.40;;;6.72;;
78148;SDS011;67396;42.664;23.382;2023-02-11T05:34:05;14.65;;;6.88;;
78148;SDS011;67396;42.664;23.382;2023-02-11T05:36:31;16.83;;;7.97;;
78148;SDS011;67396;42.664;23.382;2023-02-11T05:38:57;13.57;;;6.88;;
78148;SDS011;67396;42.664;23.382;2023-02-11T05:41:22;10.75;;;5.85;;
78148;SDS011;67396;42.664;23.382;2023-02-11T05:43:48;17.75;;;7.03;;
78148;SDS011;67396;42.664;23.382;2023-02-11T05:46:15;13.10;;;6.60;;
78148;SDS011;67396;42.664;23.382;2023-02-11T05:48:42;17.05;;;7.75;;
78148;SDS011;67396;42.664;23.382;2023-02-11T05:51:07;16.50;;;5.80;;
78148;SDS011;67396;42.664;23.382;2023-02-11T05:53:33;12.45;;;6.32;;
78148;SDS011;67396;42.664;23.382;2023-02-11T05:55:58;15.95;;;7.60;;
78148;SDS011;67396;42.664;23.382;2023-02-11T05:58:24;17.10;;;8.73;;
78148;SDS011;67396;42.664;23.382;2023-02-11T06:00:49;16.25;;;7.75;;
78148;SDS011;67396;42.664;23.382;2023-02-11T06:03:15;13.80;;;7.78;;
78148;SDS011;67396;42.664;23.382;2023-02-11T06:05:41;17.33;;;9.05;;
78148;SDS011;67396;42.664;23.382;2023-02-11T06:08:07;12.38;;;6.93;;
78148;SDS011;67396;42.664;23.382;2023-02-11T06:10:33;18.48;;;8.27;;
78148;SDS011;67396;42.664;23.382;2023-02-11T06:12:58;14.63;;;7.65;;
78148;SDS011;67396;42.664;23.382;2023-02-11T06:15:25;15.75;;;8.20;;
78148;SDS011;67396;42.664;23.382;2023-02-11T06:17:51;22.30;;;10.10;;
78148;SDS011;67396;42.664;23.382;2023-02-11T06:20:16;22.38;;;10.63;;
78148;SDS011;67396;42.664;23.382;2023-02-11T06:22:42;19.65;;;9.70;;
78148;SDS011;67396;42.664;23.382;2023-02-11T06:25:08;20.13;;;9.90;;
78148;SDS011;67396;42.664;23.382;2023-02-11T06:27:35;21.80;;;9.43;;
78148;SDS011;67396;42.664;23.382;2023-02-11T06:30:00;20.70;;;11.35;;
78148;SDS011;67396;42.664;23.382;2023-02-11T06:32:27;24.02;;;10.82;;
78148;SDS011;67396;42.664;23.382;2023-02-11T06:34:52;17.52;;;10.00;;
78148;SDS011;67396;42.664;23.382;2023-02-11T06:37:18;27.25;;;12.73;;
78148;SDS011;67396;42.664;23.382;2023-02-11T06:39:43;27.40;;;12.93;;
78148;SDS011;67396;42.664;23.382;2023-02-11T06:42:11;25.08;;;12.98;;
78148;SDS011;67396;42.664;23.382;2023-02-11T06:44:37;28.33;;;13.55;;
78148;SDS011;67396;42.664;23.382;2023-02-11T06:47:03;23.08;;;11.98;;
78148;SDS011;67396;42.664;23.382;2023-02-11T06:52:37;21.08;;;11.18;;
78148;SDS011;67396;42.664;23.382;2023-02-11T06:55:03;23.88;;;12.82;;
78148;SDS011;67396;42.664;23.382;2023-02-11T06:59:54;22.63;;;12.48;;
78148;SDS011;67396;42.664;23.382;2023-02-11T07:02:20;26.75;;;10.93;;
78148;SDS011;67396;42.664;23.382;2023-02-11T07:04:45;31.38;;;13.63;;
78148;SDS011;67396;42.664;23.382;2023-02-11T07:07:11;35.58;;;15.50;;
78148;SDS011;67396;42.664;23.382;2023-02-11T07:09:36;29.77;;;14.57;;
78148;SDS011;67396;42.664;23.382;2023-02-11T07:12:02;28.52;;;15.55;;
78148;SDS011;67396;42.664;23.382;2023-02-11T07:16:53;27.63;;;13.68;;
78148;SDS011;67396;42.664;23.382;2023-02-11T07:19:18;26.35;;;13.55;;
78148;SDS011;67396;42.664;23.382;2023-02-11T07:24:09;26.23;;;11.00;;
78148;SDS011;67396;42.664;23.382;2023-02-11T07:26:35;29.15;;;12.73;;
78148;SDS011;67396;42.664;23.382;2023-02-11T07:29:01;27.33;;;14.25;;
78148;SDS011;67396;42.664;23.382;2023-02-11T07:31:27;24.10;;;12.32;;
78148;SDS011;67396;42.664;23.382;2023-02-11T07:33:55;26.33;;;14.15;;
78148;SDS011;67396;42.664;23.382;2023-02-11T07:36:23;23.02;;;12.60;;
78148;SDS011;67396;42.664;23.382;2023-02-11T07:38:53;25.27;;;13.70;;
78148;SDS011;67396;42.664;23.382;2023-02-11T07:41:20;34.55;;;14.07;;
78148;SDS011;67396;42.664;23.382;2023-02-11T07:43:47;30.98;;;13.18;;
78148;SDS011;67396;42.664;23.382;2023-02-11T07:49:01;23.38;;;12.90;;
78148;SDS011;67396;42.664;23.382;2023-02-11T07:53:53;26.40;;;13.50;;
78148;SDS011;67396;42.664;23.382;2023-02-11T07:56:20;26.17;;;14.77;;
78148;SDS011;67396;42.664;23.382;2023-02-11T07:58:46;28.67;;;13.55;;
78148;SDS011;67396;42.664;23.382;2023-02-11T08:03:38;28.60;;;12.73;;
78148;SDS011;67396;42.664;23.382;2023-02-11T08:06:07;23.30;;;12.30;;
78148;SDS011;67396;42.664;23.382;2023-02-11T08:08:34;25.27;;;12.88;;
78148;SDS011;67396;42.664;23.382;2023-02-11T08:11:11;30.05;;;13.95;;
78148;SDS011;67396;42.664;23.382;2023-02-11T08:13:38;27.05;;;14.20;;
78148;SDS011;67396;42.664;23.382;2023-02-11T08:16:04;28.67;;;14.45;;
78148;SDS011;67396;42.664;23.382;2023-02-11T08:18:30;24.35;;;14.98;;
78148;SDS011;67396;42.664;23.382;2023-02-11T08:20:56;28.20;;;14.13;;
78148;SDS011;67396;42.664;23.382;2023-02-11T08:25:47;53.78;;;22.10;;
78148;SDS011;67396;42.664;23.382;2023-02-11T08:30:37;22.67;;;12.93;;
78148;SDS011;67396;42.664;23.382;2023-02-11T08:35:33;27.17;;;13.77;;
78148;SDS011;67396;42.664;23.382;2023-02-11T08:37:59;31.13;;;13.95;;
78148;SDS011;67396;42.664;23.382;2023-02-11T08:42:50;19.77;;;10.23;;
78148;SDS011;67396;42.664;23.382;2023-02-11T08:45:18;28.42;;;12.82;;
78148;SDS011;67396;42.664;23.382;2023-02-11T08:47:46;28.92;;;12.63;;
78148;SDS011;67396;42.664;23.382;2023-02-11T08:50:11;24.02;;;11.85;;
78148;SDS011;67396;42.664;23.382;2023-02-11T08:52:40;23.08;;;10.95;;
78148;SDS011;67396;42.664;23.382;2023-02-11T08:55:08;29.05;;;12.07;;
78148;SDS011;67396;42.664;23.382;2023-02-11T08:57:33;45.88;;;16.50;;
78148;SDS011;67396;42.664;23.382;2023-02-11T08:59:59;29.33;;;14.32;;
78148;SDS011;67396;42.664;23.382;2023-02-11T09:02:24;21.27;;;11.02;;
78148;SDS011;67396;42.664;23.382;2023-02-11T09:04:50;63.38;;;29.98;;
78148;SDS011;67396;42.664;23.382;2023-02-11T09:07:15;53.88;;;24.27;;
78148;SDS011;67396;42.664;23.382;2023-02-11T09:09:44;25.35;;;12.38;;
78148;SDS011;67396;42.664;23.382;2023-02-11T09:12:10;29.48;;;12.40;;
78148;SDS011;67396;42.664;23.382;2023-02-11T09:14:35;28.27;;;12.10;;
78148;SDS011;67396;42.664;23.382;2023-02-11T09:17:02;33.75;;;13.18;;
78148;SDS011;67396;42.664;23.382;2023-02-11T09:19:27;27.90;;;13.45;;
78148;SDS011;67396;42.664;23.382;2023-02-11T09:21:53;18.75;;;10.18;;
78148;SDS011;67396;42.664;23.382;2023-02-11T09:24:18;25.48;;;12.25;;
78148;SDS011;67396;42.664;23.382;2023-02-11T09:26:44;21.30;;;10.68;;
78148;SDS011;67396;42.664;23.382;2023-02-11T09:29:09;28.38;;;12.15;;
78148;SDS011;67396;42.664;23.382;2023-02-11T09:34:02;22.63;;;12.47;;
78148;SDS011;67396;42.664;23.382;2023-02-11T09:36:30;28.70;;;12.57;;
78148;SDS011;67396;42.664;23.382;2023-02-11T09:38:58;21.27;;;11.02;;
78148;SDS011;67396;42.664;23.382;2023-02-11T09:44:20;21.75;;;11.38;;
78148;SDS011;67396;42.664;23.382;2023-02-11T09:46:58;24.33;;;11.52;;
78148;SDS011;67396;42.664;23.382;2023-02-11T09:49:39;22.35;;;10.55;;
78148;SDS011;67396;42.664;23.382;2023-02-11T09:55:05;25.25;;;10.52;;
78148;SDS011;67396;42.664;23.382;2023-02-11T09:57:41;22.67;;;10.38;;
78148;SDS011;67396;42.664;23.382;2023-02-11T10:00:17;24.25;;;10.63;;
78148;SDS011;67396;42.664;23.382;2023-02-11T10:02:55;19.58;;;9.73;;
78148;SDS011;67396;42.664;23.382;2023-02-11T10:11:14;22.27;;;10.05;;
78148;SDS011;67396;42.664;23.382;2023-02-11T10:16:54;18.73;;;8.77;;
78148;SDS011;67396;42.664;23.382;2023-02-11T10:22:47;15.80;;;8.32;;
78148;SDS011;67396;42.664;23.382;2023-02-11T10:25:38;18.83;;;8.65;;
78148;SDS011;67396;42.664;23.382;2023-02-11T10:28:10;20.65;;;10.32;;
78148;SDS011;67396;42.664;23.382;2023-02-11T10:33:33;23.48;;;10.82;;
78148;SDS011;67396;42.664;23.382;2023-02-11T10:36:04;15.45;;;8.13;;
78148;SDS011;67396;42.664;23.382;2023-02-11T10:40:57;16.70;;;7.65;;
78148;SDS011;67396;42.664;23.382;2023-02-11T10:45:59;18.30;;;7.40;;
78148;SDS011;67396;42.664;23.382;2023-02-11T10:53:40;18.00;;;7.78;;
78148;SDS011;67396;42.664;23.382;2023-02-11T10:56:06;18.90;;;10.23;;
78148;SDS011;67396;42.664;23.382;2023-02-11T11:01:52;18.17;;;9.00;;
78148;SDS011;67396;42.664;23.382;2023-02-11T11:04:42;18.58;;;9.88;;
78148;SDS011;67396;42.664;23.382;2023-02-11T11:07:18;18.10;;;8.75;;
78148;SDS011;67396;42.664;23.382;2023-02-11T11:09:56;25.38;;;10.18;;
78148;SDS011;67396;42.664;23.382;2023-02-11T11:17:42;16.08;;;7.18;;
78148;SDS011;67396;42.664;23.382;2023-02-11T11:22:44;18.75;;;8.20;;
78148;SDS011;67396;42.664;23.382;2023-02-11T11:25:23;17.48;;;8.63;;
78148;SDS011;67396;42.664;23.382;2023-02-11T11:27:54;13.43;;;7.03;;
78148;SDS011;67396;42.664;23.382;2023-02-11T11:30:38;17.27;;;7.80;;
78148;SDS011;67396;42.664;23.382;2023-02-11T11:33:26;19.05;;;8.07;;
78148;SDS011;67396;42.664;23.382;2023-02-11T11:38:22;16.77;;;8.30;;
78148;SDS011;67396;42.664;23.382;2023-02-11T11:44:18;15.52;;;8.25;;
78148;SDS011;67396;42.664;23.382;2023-02-11T11:46:45;16.65;;;8.57;;
78148;SDS011;67396;42.664;23.382;2023-02-11T11:49:35;15.32;;;7.32;;
78148;SDS011;67396;42.664;23.382;2023-02-11T11:52:10;13.27;;;7.05;;
78148;SDS011;67396;42.664;23.382;2023-02-11T11:55:03;15.77;;;6.65;;
78148;SDS011;67396;42.664;23.382;2023-02-11T11:57:32;17.33;;;7.47;;
78148;SDS011;67396;42.664;23.382;2023-02-11T12:00:01;14.20;;;7.13;;
78148;SDS011;67396;42.664;23.382;2023-02-11T12:05:33;12.52;;;5.43;;
78148;SDS011;67396;42.664;23.382;2023-02-11T12:22:40;15.20;;;7.20;;
78148;SDS011;67396;42.664;23.382;2023-02-11T12:35:53;15.15;;;6.50;;
78148;SDS011;67396;42.664;23.382;2023-02-11T12:44:36;12.00;;;6.13;;
78148;SDS011;67396;42.664;23.382;2023-02-11T12:49:48;5.75;;;3.72;;
78148;SDS011;67396;42.664;23.382;2023-02-11T12:52:47;11.85;;;5.32;;
78148;SDS011;67396;42.664;23.382;2023-02-11T12:55:30;9.25;;;4.90;;
78148;SDS011;67396;42.664;23.382;2023-02-11T12:58:01;8.48;;;4.95;;
78148;SDS011;67396;42.664;23.382;2023-02-11T13:03:37;16.77;;;4.95;;
78148;SDS011;67396;42.664;23.382;2023-02-11T13:06:08;8.85;;;5.32;;
78148;SDS011;67396;42.664;23.382;2023-02-11T13:08:48;15.30;;;7.60;;
78148;SDS011;67396;42.664;23.382;2023-02-11T13:11:23;10.20;;;5.95;;
78148;SDS011;67396;42.664;23.382;2023-02-11T13:16:33;15.35;;;5.85;;
78148;SDS011;67396;42.664;23.382;2023-02-11T13:35:26;11.88;;;5.53;;
78148;SDS011;67396;42.664;23.382;2023-02-11T13:37:53;14.18;;;6.03;;
78148;SDS011;67396;42.664;23.382;2023-02-11T13:40:23;12.43;;;6.68;;
78148;SDS011;67396;42.664;23.382;2023-02-11T13:42:52;8.98;;;5.60;;
78148;SDS011;67396;42.664;23.382;2023-02-11T13:45:26;11.90;;;6.38;;
78148;SDS011;67396;42.664;23.382;2023-02-11T13:50:46;13.38;;;6.30;;
78148;SDS011;67396;42.664;23.382;2023-02-11T13:53:13;10.90;;;5.88;;
78148;SDS011;67396;42.664;23.382;2023-02-11T13:55:44;13.00;;;6.47;;
78148;SDS011;67396;42.664;23.382;2023-02-11T13:58:30;13.75;;;6.88;;
78148;SDS011;67396;42.664;23.382;2023-02-11T14:01:04;12.23;;;6.28;;
78148;SDS011;67396;42.664;23.382;2023-02-11T14:03:34;11.52;;;5.95;;
78148;SDS011;67396;42.664;23.382;2023-02-11T14:06:38;12.63;;;5.60;;
78148;SDS011;67396;42.664;23.382;2023-02-11T14:09:46;10.70;;;4.90;;
78148;SDS011;67396;42.664;23.382;2023-02-11T14:12:18;13.02;;;5.18;;
78148;SDS011;67396;42.664;23.382;2023-02-11T14:17:37;12.55;;;5.72;;
78148;SDS011;67396;42.664;23.382;2023-02-11T14:23:19;12.18;;;4.95;;
78148;SDS011;67396;42.664;23.382;2023-02-11T14:25:57;14.32;;;5.32;;
78148;SDS011;67396;42.664;23.382;2023-02-11T14:28:36;12.15;;;5.90;;
78148;SDS011;67396;42.664;23.382;2023-02-11T14:31:13;10.35;;;5.88;;
78148;SDS011;67396;42.664;23.382;2023-02-11T14:34:01;11.68;;;5.97;;
78148;SDS011;67396;42.664;23.382;2023-02-11T14:42:25;8.85;;;5.30;;
78148;SDS011;67396;42.664;23.382;2023-02-11T14:44:54;12.13;;;6.05;;
78148;SDS011;67396;42.664;23.382;2023-02-11T14:47:38;11.07;;;7.10;;
78148;SDS011;67396;42.664;23.382;2023-02-11T14:50:24;10.75;;;5.25;;
78148;SDS011;67396;42.664;23.382;2023-02-11T14:53:05;17.45;;;6.80;;
78148;SDS011;67396;42.664;23.382;2023-02-11T14:55:40;10.05;;;5.30;;
78148;SDS011;67396;42.664;23.382;2023-02-11T14:58:17;11.68;;;6.28;;
78148;SDS011;67396;42.664;23.382;2023-02-11T15:03:38;13.20;;;5.97;;
78148;SDS011;67396;42.664;23.382;2023-02-11T15:08:52;12.93;;;6.38;;
78148;SDS011;67396;42.664;23.382;2023-02-11T15:11:23;17.20;;;8.88;;
78148;SDS011;67396;42.664;23.382;2023-02-11T15:13:50;18.75;;;8.43;;
78148;SDS011;67396;42.664;23.382;2023-02-11T15:16:21;21.50;;;10.07;;
78148;SDS011;67396;42.664;23.382;2023-02-11T15:18:50;17.70;;;6.93;;
78148;SDS011;67396;42.664;23.382;2023-02-11T15:21:27;15.32;;;7.45;;
78148;SDS011;67396;42.664;23.382;2023-02-11T15:23:59;12.95;;;6.88;;
78148;SDS011;67396;42.664;23.382;2023-02-11T15:26:28;14.20;;;6.78;;
78148;SDS011;67396;42.664;23.382;2023-02-11T15:28:53;12.57;;;7.22;;
78148;SDS011;67396;42.664;23.382;2023-02-11T15:31:21;12.52;;;7.05;;
78148;SDS011;67396;42.664;23.382;2023-02-11T15:33:49;13.93;;;7.40;;
78148;SDS011;67396;42.664;23.382;2023-02-11T15:36:15;15.70;;;8.77;;
78148;SDS011;67396;42.664;23.382;2023-02-11T15:38:43;14.65;;;7.22;;
78148;SDS011;67396;42.664;23.382;2023-02-11T15:41:28;16.73;;;7.50;;
78148;SDS011;67396;42.664;23.382;2023-02-11T15:43:58;12.13;;;6.35;;
78148;SDS011;67396;42.664;23.382;2023-02-11T15:46:24;13.68;;;7.40;;
78148;SDS011;67396;42.664;23.382;2023-02-11T15:49:00;16.75;;;8.10;;
78148;SDS011;67396;42.664;23.382;2023-02-11T15:51:35;15.38;;;8.00;;
78148;SDS011;67396;42.664;23.382;2023-02-11T15:54:07;14.88;;;7.97;;
78148;SDS011;67396;42.664;23.382;2023-02-11T16:02:03;14.65;;;7.90;;
78148;SDS011;67396;42.664;23.382;2023-02-11T16:04:32;14.98;;;7.95;;
78148;SDS011;67396;42.664;23.382;2023-02-11T16:06:58;13.32;;;6.35;;
78148;SDS011;67396;42.664;23.382;2023-02-11T16:09:31;10.35;;;6.45;;
78148;SDS011;67396;42.664;23.382;2023-02-11T16:12:00;6.25;;;4.55;;
78148;SDS011;67396;42.664;23.382;2023-02-11T16:14:44;3.65;;;1.80;;
78148;SDS011;67396;42.664;23.382;2023-02-11T16:19:48;3.53;;;3.10;;
78148;SDS011;67396;42.664;23.382;2023-02-11T16:22:16;5.45;;;3.13;;
78148;SDS011;67396;42.664;23.382;2023-02-11T16:24:48;4.68;;;2.63;;
78148;SDS011;67396;42.664;23.382;2023-02-11T16:27:27;6.80;;;3.78;;
78148;SDS011;67396;42.664;23.382;2023-02-11T16:29:58;6.38;;;4.88;;
78148;SDS011;67396;42.664;23.382;2023-02-11T16:34:52;4.95;;;3.58;;
78148;SDS011;67396;42.664;23.382;2023-02-11T16:37:25;4.85;;;3.13;;
78148;SDS011;67396;42.664;23.382;2023-02-11T16:39:59;6.65;;;2.92;;
78148;SDS011;67396;42.664;23.382;2023-02-11T16:42:27;6.65;;;3.47;;
78148;SDS011;67396;42.664;23.382;2023-02-11T16:47:27;9.13;;;5.20;;
78148;SDS011;67396;42.664;23.382;2023-02-11T16:49:53;4.50;;;3.85;;
78148;SDS011;67396;42.664;23.382;2023-02-11T16:52:20;6.63;;;4.45;;
78148;SDS011;67396;42.664;23.382;2023-02-11T16:54:46;9.13;;;3.25;;
78148;SDS011;67396;42.664;23.382;2023-02-11T16:59:41;7.95;;;4.40;;
78148;SDS011;67396;42.664;23.382;2023-02-11T17:04:41;16.10;;;3.88;;
78148;SDS011;67396;42.664;23.382;2023-02-11T17:07:07;2.70;;;2.33;;
78148;SDS011;67396;42.664;23.382;2023-02-11T17:11:58;5.00;;;3.17;;
78148;SDS011;67396;42.664;23.382;2023-02-11T17:14:28;3.65;;;2.50;;
78148;SDS011;67396;42.664;23.382;2023-02-11T17:16:55;10.65;;;4.15;;
78148;SDS011;67396;42.664;23.382;2023-02-11T17:19:20;7.50;;;4.90;;
78148;SDS011;67396;42.664;23.382;2023-02-11T17:26:39;4.53;;;3.33;;
78148;SDS011;67396;42.664;23.382;2023-02-11T17:29:09;9.18;;;5.45;;
78148;SDS011;67396;42.664;23.382;2023-02-11T17:31:36;11.93;;;3.05;;
78148;SDS011;67396;42.664;23.382;2023-02-11T17:34:03;6.20;;;4.35;;
78148;SDS011;67396;42.664;23.382;2023-02-11T17:38:57;2.75;;;2.55;;
78148;SDS011;67396;42.664;23.382;2023-02-11T17:41:23;8.02;;;3.50;;
78148;SDS011;67396;42.664;23.382;2023-02-11T17:43:50;3.90;;;3.25;;
78148;SDS011;67396;42.664;23.382;2023-02-11T17:48:42;5.43;;;3.58;;
78148;SDS011;67396;42.664;23.382;2023-02-11T17:51:20;3.88;;;2.83;;
78148;SDS011;67396;42.664;23.382;2023-02-11T17:53:50;8.60;;;5.13;;
78148;SDS011;67396;42.664;23.382;2023-02-11T17:56:16;5.38;;;3.95;;
78148;SDS011;67396;42.664;23.382;2023-02-11T18:01:16;6.93;;;2.67;;
78148;SDS011;67396;42.664;23.382;2023-02-11T18:06:07;6.68;;;5.25;;
78148;SDS011;67396;42.664;23.382;2023-02-11T18:10:58;5.72;;;5.13;;
78148;SDS011;67396;42.664;23.382;2023-02-11T18:15:49;13.88;;;7.57;;
78148;SDS011;67396;42.664;23.382;2023-02-11T18:18:15;8.82;;;5.57;;
78148;SDS011;67396;42.664;23.382;2023-02-11T18:25:33;3.72;;;3.45;;
78148;SDS011;67396;42.664;23.382;2023-02-11T18:27:58;10.70;;;4.78;;